sensor_id;sensor_type;location;lat;lon;timestamp;pressure;altitude;pressure_sealevel;temperature;humidity
26657;BME280;14279;50.010;8.260;2023-12-20T00:02:04;100460.06;;;5.18;100.00
26657;BME280;14279;50.010;8.260;2023-12-20T00:04:30;100459.16;;;5.20;100.00
26657;BME280;14279;50.010;8.260;2023-12-20T00:06:55;100459.16;;;5.20;100.00
26657;BME280;14279;50.010;8.260;2023-12-20T00:09:20;100462.03;;;5.06;100.00
26657;BME280;14279;50.010;8.260;2023-12-20T00:11:45;100457.72;;;5.07;100.00
26657;BME280;14279;50.010;8.260;2023-12-20T00:14:11;100458.41;;;5.17;100.00
26657;BME280;14279;50.010;8.260;2023-12-20T00:16:36;100451.41;;;5.20;100.00
26657;BME280;14279;50.010;8.260;2023-12-20T00:19:02;100442.03;;;5.16;100.00
26657;BME280;14279;50.010;8.260;2023-12-20T00:21:27;100442.81;;;5.20;100.00
26657;BME280;14279;50.010;8.260;2023-12-20T00:23:52;100446.44;;;5.13;100.00
26657;BME280;14279;50.010;8.260;2023-12-20T00:26:17;100437.81;;;5.14;100.00
26657;BME280;14279;50.010;8.260;2023-12-20T00:28:43;100446.38;;;5.16;100.00
26657;BME280;14279;50.010;8.260;2023-12-20T00:31:08;100437.13;;;5.05;100.00
26657;BME280;14279;50.010;8.260;2023-12-20T00:33:33;100438.69;;;5.13;100.00
26657;BME280;14279;50.010;8.260;2023-12-20T00:35:59;100433.38;;;5.19;100.00
26657;BME280;14279;50.010;8.260;2023-12-20T00:38:24;100427.56;;;5.09;100.00
26657;BME280;14279;50.010;8.260;2023-12-20T00:40:49;100433.38;;;5.19;100.00
26657;BME280;14279;50.010;8.260;2023-12-20T00:43:15;100442.09;;;5.13;100.00
26657;BME280;14279;50.010;8.260;2023-12-20T00:45:40;100430.84;;;5.17;100.00
26657;BME280;14279;50.010;8.260;2023-12-20T00:48:05;100440.41;;;5.14;100.00
26657;BME280;14279;50.010;8.260;2023-12-20T00:50:31;100432.53;;;5.18;100.00
26657;BME280;14279;50.010;8.260;2023-12-20T00:52:57;100436.69;;;5.24;100.00
26657;BME280;14279;50.010;8.260;2023-12-20T00:55:22;100427.44;;;5.17;100.00
26657;BME280;14279;50.010;8.260;2023-12-20T00:57:47;100428.16;;;5.22;100.00
26657;BME280;14279;50.010;8.260;2023-12-20T01:00:13;100428.25;;;5.17;100.00
26657;BME280;14279;50.010;8.260;2023-12-20T01:02:38;100424.72;;;5.21;100.00
26657;BME280;14279;50.010;8.260;2023-12-20T01:05:04;100422.25;;;5.17;100.00
26657;BME280;14279;50.010;8.260;2023-12-20T01:07:29;100419.59;;;5.20;100.00
26657;BME280;14279;50.010;8.260;2023-12-20T01:09:54;100416.91;;;5.24;100.00
26657;BME280;14279;50.010;8.260;2023-12-20T01:12:20;100416.13;;;5.21;100.00
26657;BME280;14279;50.010;8.260;2023-12-20T01:14:45;100415.31;;;5.19;100.00
26657;BME280;14279;50.010;8.260;2023-12-20T01:17:11;100413.47;;;5.24;100.00
26657;BME280;14279;50.010;8.260;2023-12-20T01:19:36;100417.69;;;5.28;100.00
26657;BME280;14279;50.010;8.260;2023-12-20T01:22:01;100412.53;;;5.28;100.00
26657;BME280;14279;50.010;8.260;2023-12-20T01:24:26;100412.59;;;5.25;100.00
26657;BME280;14279;50.010;8.260;2023-12-20T01:26:52;100403.19;;;5.22;100.00
26657;BME280;14279;50.010;8.260;2023-12-20T01:29:17;100414.53;;;5.17;100.00
26657;BME280;14279;50.010;8.260;2023-12-20T01:31:42;100420.31;;;5.26;100.00
26657;BME280;14279;50.010;8.260;2023-12-20T01:34:08;100404.66;;;5.33;100.00
26657;BME280;14279;50.010;8.260;2023-12-20T01:36:33;100408.19;;;5.30;100.00
26657;BME280;14279;50.010;8.260;2023-12-20T01:38:58;100411.78;;;5.23;100.00
26657;BME280;14279;50.010;8.260;2023-12-20T01:41:23;100411.78;;;5.23;100.00
26657;BME280;14279;50.010;8.260;2023-12-20T01:43:49;100425.31;;;5.33;100.00
26657;BME280;14279;50.010;8.260;2023-12-20T01:46:14;100444.75;;;5.11;100.00
26657;BME280;14279;50.010;8.260;2023-12-20T01:48:40;100445.56;;;5.14;100.00
26657;BME280;14279;50.010;8.260;2023-12-20T01:51:05;100442.19;;;5.10;100.00
26657;BME280;14279;50.010;8.260;2023-12-20T01:53:31;100441.06;;;5.22;100.00
26657;BME280;14279;50.010;8.260;2023-12-20T01:55:58;100433.31;;;5.22;100.00
26657;BME280;14279;50.010;8.260;2023-12-20T01:58:24;100428.78;;;5.32;100.00
26657;BME280;14279;50.010;8.260;2023-12-20T02:00:50;100425.28;;;5.34;100.00
26657;BME280;14279;50.010;8.260;2023-12-20T02:03:16;100427.75;;;5.39;100.00
26657;BME280;14279;50.010;8.260;2023-12-20T02:05:42;100448.47;;;5.37;100.00
26657;BME280;14279;50.010;8.260;2023-12-20T02:08:07;100445.97;;;5.33;100.00
26657;BME280;14279;50.010;8.260;2023-12-20T02:10:32;100431.22;;;5.39;100.00
26657;BME280;14279;50.010;8.260;2023-12-20T02:12:58;100414.78;;;5.42;100.00
26657;BME280;14279;50.010;8.260;2023-12-20T02:15:23;100413.78;;;5.48;100.00
26657;BME280;14279;50.010;8.260;2023-12-20T02:17:49;100409.47;;;5.48;100.00
26657;BME280;14279;50.010;8.260;2023-12-20T02:20:15;100409.56;;;5.45;100.00
26657;BME280;14279;50.010;8.260;2023-12-20T02:22:40;100399.16;;;5.48;100.00
26657;BME280;14279;50.010;8.260;2023-12-20T02:25:05;100400.69;;;5.55;100.00
26657;BME280;14279;50.010;8.260;2023-12-20T02:27:31;100400.81;;;5.51;100.00
26657;BME280;14279;50.010;8.260;2023-12-20T02:29:56;100408.41;;;5.55;100.00
26657;BME280;14279;50.010;8.260;2023-12-20T02:32:23;100416.97;;;5.59;100.00
26657;BME280;14279;50.010;8.260;2023-12-20T02:34:51;100407.53;;;5.56;100.00
26657;BME280;14279;50.010;8.260;2023-12-20T02:37:17;100413.63;;;5.54;100.00
26657;BME280;14279;50.010;8.260;2023-12-20T02:39:42;100420.63;;;5.50;100.00
26657;BME280;14279;50.010;8.260;2023-12-20T02:42:07;100422.22;;;5.54;100.00
26657;BME280;14279;50.010;8.260;2023-12-20T02:44:32;100400.84;;;5.49;100.00
26657;BME280;14279;50.010;8.260;2023-12-20T02:46:58;100413.16;;;5.38;100.00
26657;BME280;14279;50.010;8.260;2023-12-20T02:49:24;100413.19;;;5.36;100.00
26657;BME280;14279;50.010;8.260;2023-12-20T02:51:49;100420.75;;;5.44;100.00
26657;BME280;14279;50.010;8.260;2023-12-20T02:54:14;100425.25;;;5.36;100.00
26657;BME280;14279;50.010;8.260;2023-12-20T02:56:40;100430.41;;;5.36;100.00
26657;BME280;14279;50.010;8.260;2023-12-20T02:59:05;100424.09;;;5.48;100.00
26657;BME280;14279;50.010;8.260;2023-12-20T03:01:31;100423.28;;;5.46;100.00
26657;BME280;14279;50.010;8.260;2023-12-20T03:03:57;100426.75;;;5.46;100.00
26657;BME280;14279;50.010;8.260;2023-12-20T03:06:22;100425.72;;;5.53;100.00
26657;BME280;14279;50.010;8.260;2023-12-20T03:08:48;100422.41;;;5.47;100.00
26657;BME280;14279;50.010;8.260;2023-12-20T03:11:13;100411.94;;;5.53;100.00
26657;BME280;14279;50.010;8.260;2023-12-20T03:13:38;100417.09;;;5.53;100.00
26657;BME280;14279;50.010;8.260;2023-12-20T03:16:11;100424.03;;;5.51;100.00
26657;BME280;14279;50.010;8.260;2023-12-20T03:18:37;100428.53;;;5.42;100.00
26657;BME280;14279;50.010;8.260;2023-12-20T03:21:02;100431.03;;;5.46;100.00
26657;BME280;14279;50.010;8.260;2023-12-20T03:23:28;100441.56;;;5.38;100.00
26657;BME280;14279;50.010;8.260;2023-12-20T03:25:55;100445.66;;;5.47;100.00
26657;BME280;14279;50.010;8.260;2023-12-20T03:28:20;100444.88;;;5.43;100.00
26657;BME280;14279;50.010;8.260;2023-12-20T03:30:46;100443.22;;;5.40;100.00
26657;BME280;14279;50.010;8.260;2023-12-20T03:33:11;100456.13;;;5.40;100.00
26657;BME280;14279;50.010;8.260;2023-12-20T03:35:36;100461.13;;;5.47;100.00
26657;BME280;14279;50.010;8.260;2023-12-20T03:38:02;100468.81;;;5.50;100.00
26657;BME280;14279;50.010;8.260;2023-12-20T03:40:27;100467.09;;;5.50;100.00
26657;BME280;14279;50.010;8.260;2023-12-20T03:42:52;100463.44;;;5.59;100.00
26657;BME280;14279;50.010;8.260;2023-12-20T03:45:17;100458.38;;;5.54;100.00
26657;BME280;14279;50.010;8.260;2023-12-20T03:47:43;100467.78;;;5.57;100.00
26657;BME280;14279;50.010;8.260;2023-12-20T03:50:08;100470.31;;;5.60;100.00
26657;BME280;14279;50.010;8.260;2023-12-20T03:52:33;100459.78;;;5.68;100.00
26657;BME280;14279;50.010;8.260;2023-12-20T03:54:58;100456.44;;;5.64;100.00
26657;BME280;14279;50.010;8.260;2023-12-20T03:57:24;100455.50;;;5.67;100.00
26657;BME280;14279;50.010;8.260;2023-12-20T03:59:49;100463.13;;;5.71;100.00
26657;BME280;14279;50.010;8.260;2023-12-20T04:02:14;100461.16;;;5.83;100.00
26657;BME280;14279;50.010;8.260;2023-12-20T04:04:39;100461.16;;;5.83;100.00
26657;BME280;14279;50.010;8.260;2023-12-20T04:07:05;100458.38;;;5.91;100.00
26657;BME280;14279;50.010;8.260;2023-12-20T04:09:30;100463.59;;;5.89;100.00
26657;BME280;14279;50.010;8.260;2023-12-20T04:11:55;100464.34;;;5.93;100.00
26657;BME280;14279;50.010;8.260;2023-12-20T04:14:21;100466.78;;;6.00;100.00
26657;BME280;14279;50.010;8.260;2023-12-20T04:16:46;100465.94;;;6.00;100.00
26657;BME280;14279;50.010;8.260;2023-12-20T04:19:11;100480.44;;;6.06;100.00
26657;BME280;14279;50.010;8.260;2023-12-20T04:21:36;100480.53;;;5.99;100.00
26657;BME280;14279;50.010;8.260;2023-12-20T04:24:02;100485.72;;;5.99;100.00
26657;BME280;14279;50.010;8.260;2023-12-20T04:26:27;100499.47;;;6.01;100.00
26657;BME280;14279;50.010;8.260;2023-12-20T04:28:52;100499.59;;;5.95;100.00
26657;BME280;14279;50.010;8.260;2023-12-20T04:31:17;100503.13;;;5.91;100.00
26657;BME280;14279;50.010;8.260;2023-12-20T04:33:42;100494.63;;;5.87;100.00
26657;BME280;14279;50.010;8.260;2023-12-20T04:36:08;100504.13;;;5.87;100.00
26657;BME280;14279;50.010;8.260;2023-12-20T04:38:34;100510.94;;;5.90;100.00
26657;BME280;14279;50.010;8.260;2023-12-20T04:40:59;100518.63;;;5.93;100.00
26657;BME280;14279;50.010;8.260;2023-12-20T04:43:24;100513.31;;;5.97;98.97
26657;BME280;14279;50.010;8.260;2023-12-20T04:45:50;100520.78;;;6.11;95.90
26657;BME280;14279;50.010;8.260;2023-12-20T04:48:15;100516.34;;;6.15;92.83
26657;BME280;14279;50.010;8.260;2023-12-20T04:50:40;100502.41;;;6.22;90.17
26657;BME280;14279;50.010;8.260;2023-12-20T04:53:05;100520.38;;;6.27;88.68
26657;BME280;14279;50.010;8.260;2023-12-20T04:55:31;100529.06;;;6.24;87.83
26657;BME280;14279;50.010;8.260;2023-12-20T04:57:56;100549.72;;;6.26;87.52
26657;BME280;14279;50.010;8.260;2023-12-20T05:00:21;100552.31;;;6.26;87.27
26657;BME280;14279;50.010;8.260;2023-12-20T05:02:47;100549.81;;;6.21;86.96
26657;BME280;14279;50.010;8.260;2023-12-20T05:05:12;100549.88;;;6.20;86.91
26657;BME280;14279;50.010;8.260;2023-12-20T05:07:37;100543.91;;;6.16;87.64
26657;BME280;14279;50.010;8.260;2023-12-20T05:10:03;100547.56;;;6.07;87.01
26657;BME280;14279;50.010;8.260;2023-12-20T05:12:30;100546.75;;;6.07;87.05
26657;BME280;14279;50.010;8.260;2023-12-20T05:14:55;100550.44;;;5.93;86.67
26657;BME280;14279;50.010;8.260;2023-12-20T05:17:20;100546.88;;;6.00;85.70
26657;BME280;14279;50.010;8.260;2023-12-20T05:19:45;100551.13;;;6.03;84.89
26657;BME280;14279;50.010;8.260;2023-12-20T05:22:11;100544.28;;;6.00;85.47
26657;BME280;14279;50.010;8.260;2023-12-20T05:24:36;100545.94;;;6.03;82.63
26657;BME280;14279;50.010;8.260;2023-12-20T05:27:01;100550.69;;;6.20;82.28
26657;BME280;14279;50.010;8.260;2023-12-20T05:29:27;100552.75;;;6.07;82.26
26657;BME280;14279;50.010;8.260;2023-12-20T05:31:52;100542.56;;;5.99;81.83
26657;BME280;14279;50.010;8.260;2023-12-20T05:34:17;100547.56;;;6.09;81.57
26657;BME280;14279;50.010;8.260;2023-12-20T05:36:42;100540.88;;;5.98;81.15
26657;BME280;14279;50.010;8.260;2023-12-20T05:39:08;100541.81;;;5.94;80.91
26657;BME280;14279;50.010;8.260;2023-12-20T05:41:33;100547.91;;;5.92;80.91
26657;BME280;14279;50.010;8.260;2023-12-20T05:43:58;100547.91;;;5.92;81.12
26657;BME280;14279;50.010;8.260;2023-12-20T05:46:24;100543.72;;;5.87;80.99
26657;BME280;14279;50.010;8.260;2023-12-20T05:48:49;100548.88;;;5.87;81.23
26657;BME280;14279;50.010;8.260;2023-12-20T05:51:16;100555.81;;;5.85;81.10
26657;BME280;14279;50.010;8.260;2023-12-20T05:53:42;100554.03;;;5.87;80.94
26657;BME280;14279;50.010;8.260;2023-12-20T05:56:07;100555.00;;;5.83;80.86
26657;BME280;14279;50.010;8.260;2023-12-20T05:58:33;100550.53;;;5.90;80.59
26657;BME280;14279;50.010;8.260;2023-12-20T06:00:58;100559.38;;;5.80;80.97
26657;BME280;14279;50.010;8.260;2023-12-20T06:03:23;100573.91;;;5.85;81.63
26657;BME280;14279;50.010;8.260;2023-12-20T06:05:48;100568.06;;;5.77;81.77
26657;BME280;14279;50.010;8.260;2023-12-20T06:08:14;100574.06;;;5.78;81.76
26657;BME280;14279;50.010;8.260;2023-12-20T06:10:39;100576.84;;;5.70;81.90
26657;BME280;14279;50.010;8.260;2023-12-20T06:13:05;100573.44;;;5.66;82.13
26657;BME280;14279;50.010;8.260;2023-12-20T06:15:32;100583.63;;;5.74;82.40
26657;BME280;14279;50.010;8.260;2023-12-20T06:17:57;100583.00;;;5.63;81.39
26657;BME280;14279;50.010;8.260;2023-12-20T06:20:22;100590.81;;;5.60;81.67
26657;BME280;14279;50.010;8.260;2023-12-20T06:22:47;100587.50;;;5.54;82.15
26657;BME280;14279;50.010;8.260;2023-12-20T06:25:13;100591.16;;;5.44;82.36
26657;BME280;14279;50.010;8.260;2023-12-20T06:27:38;100593.63;;;5.50;81.91
26657;BME280;14279;50.010;8.260;2023-12-20T06:30:03;100601.31;;;5.53;81.69
26657;BME280;14279;50.010;8.260;2023-12-20T06:32:29;100598.72;;;5.53;82.10
26657;BME280;14279;50.010;8.260;2023-12-20T06:34:54;100592.88;;;5.45;81.68
26657;BME280;14279;50.010;8.260;2023-12-20T06:37:19;100577.38;;;5.44;81.85
26657;BME280;14279;50.010;8.260;2023-12-20T06:39:45;100565.63;;;5.30;82.50
26657;BME280;14279;50.010;8.260;2023-12-20T06:42:10;100580.31;;;5.28;82.31
26657;BME280;14279;50.010;8.260;2023-12-20T06:44:35;100579.47;;;5.26;82.42
26657;BME280;14279;50.010;8.260;2023-12-20T06:47:01;100584.63;;;5.28;82.72
26657;BME280;14279;50.010;8.260;2023-12-20T06:49:27;100585.78;;;5.13;84.24
26657;BME280;14279;50.010;8.260;2023-12-20T06:51:52;100573.75;;;5.11;84.35
26657;BME280;14279;50.010;8.260;2023-12-20T06:54:18;100570.41;;;5.06;84.95
26657;BME280;14279;50.010;8.260;2023-12-20T06:56:43;100578.22;;;5.03;84.85
26657;BME280;14279;50.010;8.260;2023-12-20T06:59:08;100593.69;;;5.03;85.17
26657;BME280;14279;50.010;8.260;2023-12-20T07:01:33;100586.78;;;5.05;84.93
26657;BME280;14279;50.010;8.260;2023-12-20T07:03:59;100585.09;;;5.04;85.28
26657;BME280;14279;50.010;8.260;2023-12-20T07:06:24;100599.69;;;5.05;84.25
26657;BME280;14279;50.010;8.260;2023-12-20T07:08:51;100596.13;;;5.11;84.73
26657;BME280;14279;50.010;8.260;2023-12-20T07:11:17;100591.91;;;5.07;83.96
26657;BME280;14279;50.010;8.260;2023-12-20T07:13:42;100594.97;;;5.26;83.49
26657;BME280;14279;50.010;8.260;2023-12-20T07:16:07;100600.13;;;5.28;84.03
26657;BME280;14279;50.010;8.260;2023-12-20T07:18:33;100604.47;;;5.24;83.64
26657;BME280;14279;50.010;8.260;2023-12-20T07:20:58;100611.28;;;5.30;83.28
26657;BME280;14279;50.010;8.260;2023-12-20T07:23:23;100629.03;;;5.44;83.01
26657;BME280;14279;50.010;8.260;2023-12-20T07:25:48;100623.97;;;5.40;82.83
26657;BME280;14279;50.010;8.260;2023-12-20T07:28:14;100621.22;;;5.47;83.40
26657;BME280;14279;50.010;8.260;2023-12-20T07:30:39;100633.25;;;5.48;82.71
26657;BME280;14279;50.010;8.260;2023-12-20T07:33:05;100625.63;;;5.43;83.56
26657;BME280;14279;50.010;8.260;2023-12-20T07:35:33;100634.25;;;5.42;83.76
26657;BME280;14279;50.010;8.260;2023-12-20T07:37:58;100636.88;;;5.40;83.42
26657;BME280;14279;50.010;8.260;2023-12-20T07:40:23;100637.09;;;5.28;83.42
26657;BME280;14279;50.010;8.260;2023-12-20T07:42:49;100637.16;;;5.25;84.03
26657;BME280;14279;50.010;8.260;2023-12-20T07:45:14;100635.13;;;5.41;83.69
26657;BME280;14279;50.010;8.260;2023-12-20T07:47:40;100624.19;;;5.30;84.03
26657;BME280;14279;50.010;8.260;2023-12-20T07:50:06;100626.81;;;5.26;84.12
26657;BME280;14279;50.010;8.260;2023-12-20T07:52:31;100638.06;;;5.22;84.24
26657;BME280;14279;50.010;8.260;2023-12-20T07:54:56;100631.91;;;5.30;84.92
26657;BME280;14279;50.010;8.260;2023-12-20T07:57:23;100628.44;;;5.31;84.61
26657;BME280;14279;50.010;8.260;2023-12-20T07:59:48;100632.50;;;5.42;84.54
26657;BME280;14279;50.010;8.260;2023-12-20T08:02:14;100629.19;;;5.36;84.24
26657;BME280;14279;50.010;8.260;2023-12-20T08:04:40;100631.66;;;5.42;84.66
26657;BME280;14279;50.010;8.260;2023-12-20T08:07:06;100630.06;;;5.36;84.57
26657;BME280;14279;50.010;8.260;2023-12-20T08:09:31;100635.66;;;5.55;84.12
26657;BME280;14279;50.010;8.260;2023-12-20T08:11:58;100628.72;;;5.59;83.89
26657;BME280;14279;50.010;8.260;2023-12-20T08:14:25;100639.22;;;5.51;83.49
26657;BME280;14279;50.010;8.260;2023-12-20T08:16:50;100628.63;;;5.64;84.20
26657;BME280;14279;50.010;8.260;2023-12-20T08:19:15;100636.78;;;5.84;83.27
26657;BME280;14279;50.010;8.260;2023-12-20T08:21:41;100645.88;;;5.62;83.37
26657;BME280;14279;50.010;8.260;2023-12-20T08:24:06;100642.06;;;5.78;83.79
26657;BME280;14279;50.010;8.260;2023-12-20T08:26:32;100643.63;;;5.87;82.98
26657;BME280;14279;50.010;8.260;2023-12-20T08:28:58;100647.69;;;5.97;82.75
26657;BME280;14279;50.010;8.260;2023-12-20T08:31:23;100651.06;;;6.03;82.53
26657;BME280;14279;50.010;8.260;2023-12-20T08:33:49;100652.59;;;6.11;82.28
26657;BME280;14279;50.010;8.260;2023-12-20T08:36:14;100656.34;;;5.96;82.97
26657;BME280;14279;50.010;8.260;2023-12-20T08:38:40;100664.03;;;5.99;82.76
26657;BME280;14279;50.010;8.260;2023-12-20T08:41:06;100666.84;;;5.89;83.32
26657;BME280;14279;50.010;8.260;2023-12-20T08:43:31;100653.03;;;5.90;83.15
26657;BME280;14279;50.010;8.260;2023-12-20T08:45:57;100667.56;;;5.95;83.63
26657;BME280;14279;50.010;8.260;2023-12-20T08:48:22;100659.75;;;5.98;83.11
26657;BME280;14279;50.010;8.260;2023-12-20T08:50:48;100659.03;;;5.92;83.51
26657;BME280;14279;50.010;8.260;2023-12-20T08:53:15;100653.69;;;5.99;83.39
26657;BME280;14279;50.010;8.260;2023-12-20T08:55:41;100658.69;;;6.09;82.93
26657;BME280;14279;50.010;8.260;2023-12-20T08:58:07;100652.78;;;6.04;82.99
26657;BME280;14279;50.010;8.260;2023-12-20T09:00:33;100651.72;;;6.12;83.30
26657;BME280;14279;50.010;8.260;2023-12-20T09:02:58;100655.44;;;5.97;83.66
26657;BME280;14279;50.010;8.260;2023-12-20T09:05:24;100654.91;;;6.22;83.83
26657;BME280;14279;50.010;8.260;2023-12-20T09:07:50;100653.22;;;6.21;83.93
26657;BME280;14279;50.010;8.260;2023-12-20T09:10:15;100659.84;;;6.33;83.64
26657;BME280;14279;50.010;8.260;2023-12-20T09:12:41;100648.84;;;6.25;82.98
26657;BME280;14279;50.010;8.260;2023-12-20T09:15:08;100645.41;;;6.24;82.92
26657;BME280;14279;50.010;8.260;2023-12-20T09:17:33;100661.47;;;6.37;82.95
26657;BME280;14279;50.010;8.260;2023-12-20T09:19:58;100648.59;;;6.36;82.71
26657;BME280;14279;50.010;8.260;2023-12-20T09:22:25;100643.84;;;6.53;82.21
26657;BME280;14279;50.010;8.260;2023-12-20T09:24:50;100646.28;;;6.59;81.89
26657;BME280;14279;50.010;8.260;2023-12-20T09:27:15;100651.34;;;6.64;81.41
26657;BME280;14279;50.010;8.260;2023-12-20T09:29:40;100654.53;;;6.74;81.43
26657;BME280;14279;50.010;8.260;2023-12-20T09:32:06;100643.38;;;6.72;81.58
26657;BME280;14279;50.010;8.260;2023-12-20T09:34:31;100642.81;;;6.60;81.74
26657;BME280;14279;50.010;8.260;2023-12-20T09:36:56;100637.53;;;6.64;81.25
26657;BME280;14279;50.010;8.260;2023-12-20T09:39:21;100654.13;;;6.56;81.83
26657;BME280;14279;50.010;8.260;2023-12-20T09:42:06;100658.56;;;6.51;81.90
26657;BME280;14279;50.010;8.260;2023-12-20T09:44:33;100661.34;;;6.42;81.96
26657;BME280;14279;50.010;8.260;2023-12-20T09:47:02;100674.16;;;6.48;83.07
26657;BME280;14279;50.010;8.260;2023-12-20T09:49:28;100658.38;;;6.59;82.26
26657;BME280;14279;50.010;8.260;2023-12-20T09:51:53;100661.97;;;6.53;82.50
26657;BME280;14279;50.010;8.260;2023-12-20T09:54:19;100667.00;;;6.59;82.10
26657;BME280;14279;50.010;8.260;2023-12-20T09:56:45;100659.22;;;6.59;81.89
26657;BME280;14279;50.010;8.260;2023-12-20T09:59:11;100662.38;;;6.71;82.30
26657;BME280;14279;50.010;8.260;2023-12-20T10:01:38;100656.09;;;6.81;81.52
26657;BME280;14279;50.010;8.260;2023-12-20T10:04:06;100663.13;;;6.76;81.94
26657;BME280;14279;50.010;8.260;2023-12-20T10:06:38;100671.56;;;6.83;81.72
26657;BME280;14279;50.010;8.260;2023-12-20T10:09:04;100676.06;;;6.76;81.47
26657;BME280;14279;50.010;8.260;2023-12-20T10:11:29;100666.97;;;6.94;81.45
26657;BME280;14279;50.010;8.260;2023-12-20T10:14:01;100665.97;;;7.00;80.76
26657;BME280;14279;50.010;8.260;2023-12-20T10:16:27;100662.16;;;6.80;81.42
26657;BME280;14279;50.010;8.260;2023-12-20T10:18:56;100659.28;;;6.91;80.87
26657;BME280;14279;50.010;8.260;2023-12-20T10:21:24;100657.31;;;6.99;80.95
26657;BME280;14279;50.010;8.260;2023-12-20T10:23:52;100655.69;;;6.97;80.66
26657;BME280;14279;50.010;8.260;2023-12-20T10:26:21;100646.22;;;6.96;80.13
26657;BME280;14279;50.010;8.260;2023-12-20T10:28:50;100643.47;;;7.02;79.94
26657;BME280;14279;50.010;8.260;2023-12-20T10:31:26;100638.22;;;7.05;79.15
26657;BME280;14279;50.010;8.260;2023-12-20T10:33:52;100625.50;;;7.27;79.27
26657;BME280;14279;50.010;8.260;2023-12-20T10:36:18;100631.78;;;7.20;78.92
26657;BME280;14279;50.010;8.260;2023-12-20T10:38:44;100621.06;;;7.01;78.80
26657;BME280;14279;50.010;8.260;2023-12-20T10:41:09;100621.59;;;7.14;78.60
26657;BME280;14279;50.010;8.260;2023-12-20T10:43:36;100616.03;;;7.28;77.70
26657;BME280;14279;50.010;8.260;2023-12-20T10:46:03;100609.94;;;7.29;77.09
26657;BME280;14279;50.010;8.260;2023-12-20T10:48:30;100603.47;;;7.14;77.56
26657;BME280;14279;50.010;8.260;2023-12-20T10:50:56;100607.38;;;7.27;77.06
26657;BME280;14279;50.010;8.260;2023-12-20T10:53:21;100599.53;;;7.30;76.55
26657;BME280;14279;50.010;8.260;2023-12-20T10:55:49;100608.09;;;7.34;75.93
26657;BME280;14279;50.010;8.260;2023-12-20T10:58:17;100600.50;;;7.26;73.95
26657;BME280;14279;50.010;8.260;2023-12-20T11:00:45;100609.00;;;7.31;73.72
26657;BME280;14279;50.010;8.260;2023-12-20T11:03:12;100605.97;;;7.47;73.98
26657;BME280;14279;50.010;8.260;2023-12-20T11:05:59;100617.19;;;7.47;73.67
26657;BME280;14279;50.010;8.260;2023-12-20T11:08:35;100614.13;;;7.63;73.38
26657;BME280;14279;50.010;8.260;2023-12-20T11:11:06;100618.16;;;7.73;72.26
26657;BME280;14279;50.010;8.260;2023-12-20T11:13:35;100614.56;;;7.77;71.69
26657;BME280;14279;50.010;8.260;2023-12-20T11:16:03;100619.22;;;7.66;72.06
26657;BME280;14279;50.010;8.260;2023-12-20T11:18:31;100606.44;;;7.60;72.20
26657;BME280;14279;50.010;8.260;2023-12-20T11:21:04;100596.97;;;7.59;72.27
26657;BME280;14279;50.010;8.260;2023-12-20T11:23:31;100600.38;;;7.61;71.38
26657;BME280;14279;50.010;8.260;2023-12-20T11:25:59;100602.34;;;7.52;71.13
26657;BME280;14279;50.010;8.260;2023-12-20T11:28:25;100616.72;;;7.63;72.17
26657;BME280;14279;50.010;8.260;2023-12-20T11:30:55;100623.88;;;7.55;71.93
26657;BME280;14279;50.010;8.260;2023-12-20T11:33:25;100620.97;;;7.35;72.20
26657;BME280;14279;50.010;8.260;2023-12-20T11:35:51;100618.88;;;7.48;73.03
26657;BME280;14279;50.010;8.260;2023-12-20T11:38:20;100616.31;;;7.17;73.15
26657;BME280;14279;50.010;8.260;2023-12-20T11:40:48;100610.66;;;7.34;73.42
26657;BME280;14279;50.010;8.260;2023-12-20T11:43:29;100611.72;;;7.27;73.34
26657;BME280;14279;50.010;8.260;2023-12-20T11:45:56;100610.66;;;7.34;73.43
26657;BME280;14279;50.010;8.260;2023-12-20T11:48:27;100612.06;;;7.14;71.99
26657;BME280;14279;50.010;8.260;2023-12-20T11:50:53;100599.75;;;7.22;71.39
26657;BME280;14279;50.010;8.260;2023-12-20T11:53:18;100599.84;;;7.19;71.84
26657;BME280;14279;50.010;8.260;2023-12-20T11:55:48;100591.63;;;7.35;70.89
26657;BME280;14279;50.010;8.260;2023-12-20T11:58:13;100596.06;;;7.31;70.76
26657;BME280;14279;50.010;8.260;2023-12-20T12:00:41;100593.94;;;7.46;70.53
26657;BME280;14279;50.010;8.260;2023-12-20T12:03:06;100587.00;;;7.46;71.27
26657;BME280;14279;50.010;8.260;2023-12-20T12:05:31;100577.47;;;7.47;71.07
26657;BME280;14279;50.010;8.260;2023-12-20T12:07:58;100574.44;;;7.62;71.42
26657;BME280;14279;50.010;8.260;2023-12-20T12:10:23;100560.44;;;7.68;70.11
26657;BME280;14279;50.010;8.260;2023-12-20T12:12:49;100554.72;;;7.85;69.70
26657;BME280;14279;50.010;8.260;2023-12-20T12:15:15;100558.75;;;7.94;69.59
26657;BME280;14279;50.010;8.260;2023-12-20T12:17:40;100551.16;;;7.89;68.54
26657;BME280;14279;50.010;8.260;2023-12-20T12:20:07;100551.97;;;7.90;68.46
26657;BME280;14279;50.010;8.260;2023-12-20T12:22:33;100548.91;;;8.05;67.96
26657;BME280;14279;50.010;8.260;2023-12-20T12:24:59;100555.19;;;7.98;68.17
26657;BME280;14279;50.010;8.260;2023-12-20T12:27:27;100554.28;;;7.99;68.35
26657;BME280;14279;50.010;8.260;2023-12-20T12:30:05;100548.94;;;8.04;68.94
26657;BME280;14279;50.010;8.260;2023-12-20T12:32:32;100547.59;;;7.92;68.44
26657;BME280;14279;50.010;8.260;2023-12-20T12:34:58;100552.88;;;7.89;69.34
26657;BME280;14279;50.010;8.260;2023-12-20T12:37:23;100554.00;;;7.80;69.68
26657;BME280;14279;50.010;8.260;2023-12-20T12:39:54;100553.78;;;7.88;70.24
26657;BME280;14279;50.010;8.260;2023-12-20T12:42:20;100559.00;;;7.86;70.24
26657;BME280;14279;50.010;8.260;2023-12-20T12:44:46;100536.84;;;7.77;70.41
26657;BME280;14279;50.010;8.260;2023-12-20T12:47:11;100548.09;;;7.76;70.61
26657;BME280;14279;50.010;8.260;2023-12-20T12:49:37;100527.09;;;7.57;71.32
26657;BME280;14279;50.010;8.260;2023-12-20T12:52:02;100526.13;;;7.60;71.83